Terminal Aerodrome Forecast
Issued by NWS Twin Cities, MN

Home | Current Version | Previous Version | Text Only | Print | Product List | Glossary On
Versions: 1 2 3 4 5 6 7 8 9 10 11 12 13 14 15 16 17 18 19 20 21 22 23 24 25 26
000
FTUS43 KMPX 201400 AAA
TAFMSP
TAF AMD
KMSP 201440Z 2015/2118 29009KT P6SM SCT030
     FM202200 29011KT P6SM BKN045
      TEMPO 2023/2101 2SM TSRA OVC030CB
     FM210200 30013G19KT P6SM -SHRA SCT030 BKN060
     FM210600 31010KT P6SM SCT060
     FM211200 33012G19KT P6SM SCT120=

USA.gov is the U.S. government's official web portal to all federal, state and local government web resources and services.